Time;durP1;ratioP1;P1;durP2;ratioP2;P2;SDS_P1;SDS_P2;PMS_P1;PMS_P2;Temp;Humidity;BMP_temperature;BMP_pressure;BME280_temperature;BME280_humidity;BME280_pressure;Samples;Min_cycle;Max_cycle;Signal;HPM_P1;HPM_P2
2024/01/13 00:00:54;;;;;;;0.13;0.10;;;22.40;46.70;;;;;;5104001;28;20032;-33
2024/01/13 00:03:20;;;;;;;0.28;0.20;;;22.40;46.70;;;;;;5110017;28;20020;-30
2024/01/13 00:05:46;;;;;;;0.55;0.30;;;22.40;46.70;;;;;;5113084;27;20057;-33
2024/01/13 00:08:12;;;;;;;0.30;0.20;;;22.40;46.80;;;;;;5115154;28;20471;-34
2024/01/13 00:10:38;;;;;;;1.25;0.40;;;22.40;46.70;;;;;;5114215;28;20024;-30
2024/01/13 00:13:05;;;;;;;0.40;0.30;;;22.40;46.80;;;;;;5115520;28;20019;-34
2024/01/13 00:15:31;;;;;;;0.38;0.30;;;22.40;46.80;;;;;;5113803;28;20032;-34
2024/01/13 00:17:57;;;;;;;0.57;0.30;;;22.40;46.70;;;;;;5115456;28;20220;-31
2024/01/13 00:20:23;;;;;;;0.50;0.20;;;22.40;47.30;;;;;;5113216;27;20028;-33
2024/01/13 00:23:10;;;;;;;0.22;0.22;;;22.40;46.70;;;;;;5111732;28;20476;-33
2024/01/13 00:25:36;;;;;;;0.25;0.20;;;22.40;46.80;;;;;;5055793;28;20056;-35
2024/01/13 00:28:02;;;;;;;0.50;0.25;;;22.40;46.80;;;;;;5060091;28;20103;-32
2024/01/13 00:30:28;;;;;;;0.65;0.20;;;22.40;46.90;;;;;;5057065;28;20037;-34
2024/01/13 00:32:54;;;;;;;0.20;0.20;;;22.40;46.80;;;;;;5056397;28;20055;-35
2024/01/13 00:35:20;;;;;;;0.25;0.20;;;22.40;46.90;;;;;;5057513;28;20033;-30
2024/01/13 00:37:46;;;;;;;1.33;0.20;;;22.40;46.90;;;;;;5054036;28;20476;-29
2024/01/13 00:40:13;;;;;;;0.65;0.30;;;22.30;46.80;;;;;;5057750;28;20040;-35
2024/01/13 00:42:41;;;;;;;1.45;0.20;;;22.40;46.70;;;;;;5054215;28;20033;-35
2024/01/13 00:45:07;;;;;;;0.98;0.30;;;22.40;46.70;;;;;;5033038;28;20043;-35
2024/01/13 00:47:33;;;;;;;0.20;0.20;;;22.40;46.70;;;;;;5054513;28;20044;-30
2024/01/13 00:49:59;;;;;;;0.98;0.30;;;22.40;46.80;;;;;;5054718;28;20048;-35
2024/01/13 00:52:26;;;;;;;0.50;0.30;;;22.40;47.00;;;;;;5055549;28;20115;-32
2024/01/13 00:54:53;;;;;;;0.40;0.20;;;22.40;47.00;;;;;;5056090;28;20032;-33
2024/01/13 00:57:19;;;;;;;0.23;0.20;;;22.40;46.80;;;;;;5061607;28;20060;-32
2024/01/13 00:59:45;;;;;;;0.10;0.10;;;22.40;46.90;;;;;;5051792;28;20037;-35
2024/01/13 01:02:11;;;;;;;0.20;0.20;;;22.40;47.00;;;;;;5077590;28;20028;-33
2024/01/13 01:04:37;;;;;;;0.35;0.28;;;22.40;46.90;;;;;;5113475;28;20099;-35
2024/01/13 01:07:04;;;;;;;0.30;0.20;;;22.40;46.90;;;;;;5115604;28;20027;-34
2024/01/13 01:09:30;;;;;;;1.03;0.27;;;22.40;46.90;;;;;;5114029;28;20131;-33
2024/01/13 01:11:56;;;;;;;0.20;0.20;;;22.40;46.90;;;;;;5113926;28;20023;-34
2024/01/13 01:14:22;;;;;;;0.17;0.17;;;22.40;47.00;;;;;;5113728;28;20061;-35
2024/01/13 01:16:48;;;;;;;0.20;0.20;;;22.40;47.00;;;;;;5113059;28;20024;-33
2024/01/13 01:19:15;;;;;;;1.33;0.40;;;22.40;47.00;;;;;;5110963;28;20039;-34
2024/01/13 01:21:41;;;;;;;0.40;0.25;;;22.40;47.00;;;;;;5115729;28;20024;-34
2024/01/13 01:24:07;;;;;;;0.38;0.30;;;22.40;47.00;;;;;;5105446;28;20058;-34
2024/01/13 01:26:33;;;;;;;0.45;0.30;;;22.40;47.00;;;;;;5114697;28;20047;-31
2024/01/13 01:28:59;;;;;;;0.20;0.20;;;22.30;47.00;;;;;;5117504;28;20070;-31
2024/01/13 01:31:25;;;;;;;0.30;0.30;;;22.30;47.00;;;;;;5113845;28;20032;-36
2024/01/13 01:33:51;;;;;;;0.32;0.30;;;22.40;47.10;;;;;;5116986;28;20023;-38
2024/01/13 01:36:18;;;;;;;0.57;0.22;;;22.40;47.10;;;;;;5114347;28;20475;-32
2024/01/13 01:38:44;;;;;;;1.38;0.25;;;22.40;47.10;;;;;;5115141;27;20021;-31
2024/01/13 01:41:11;;;;;;;0.30;0.20;;;22.40;47.10;;;;;;5114295;28;20028;-35
2024/01/13 01:43:37;;;;;;;0.40;0.30;;;22.30;47.60;;;;;;5110002;27;20036;-35
2024/01/13 01:46:04;;;;;;;0.60;0.20;;;22.30;47.00;;;;;;5111045;27;20040;-32
2024/01/13 01:48:39;;;;;;;0.30;0.30;;;22.30;47.50;;;;;;5110523;28;20024;-31
2024/01/13 01:51:06;;;;;;;0.47;0.22;;;22.30;47.10;;;;;;5108879;28;20041;-34
2024/01/13 01:53:34;;;;;;;0.20;0.20;;;22.40;47.90;;;;;;5106986;28;20020;-33
2024/01/13 01:56:01;;;;;;;0.25;0.20;;;22.40;47.40;;;;;;5106766;28;20049;-33
2024/01/13 01:58:28;;;;;;;3.25;0.28;;;22.40;47.40;;;;;;5107252;28;20299;-31
2024/01/13 02:00:54;;;;;;;2.05;0.30;;;22.40;47.40;;;;;;5113082;28;20095;-32
2024/01/13 02:03:21;;;;;;;0.52;0.30;;;22.30;47.40;;;;;;5112496;28;20109;-35
2024/01/13 02:05:47;;;;;;;0.77;0.50;;;22.30;47.40;;;;;;5109765;28;20057;-35
2024/01/13 02:08:13;;;;;;;0.45;0.40;;;22.30;47.30;;;;;;5111754;28;20532;-36
2024/01/13 02:10:40;;;;;;;1.33;0.30;;;22.40;47.40;;;;;;5110669;28;20762;-36
2024/01/13 02:13:06;;;;;;;0.30;0.30;;;22.40;47.30;;;;;;5114863;28;20039;-37
2024/01/13 02:15:32;;;;;;;0.40;0.30;;;22.40;47.30;;;;;;5116010;28;20063;-35
2024/01/13 02:17:58;;;;;;;1.35;0.40;;;22.30;47.30;;;;;;5116928;28;20039;-34
2024/01/13 02:20:24;;;;;;;2.83;0.70;;;22.30;47.30;;;;;;5117932;28;20045;-36
2024/01/13 02:22:50;;;;;;;3.42;0.30;;;22.30;47.30;;;;;;5118381;27;20049;-34
2024/01/13 02:25:17;;;;;;;1.02;0.60;;;22.40;47.30;;;;;;5120861;28;20076;-33
2024/01/13 02:27:43;;;;;;;0.88;0.40;;;22.40;47.40;;;;;;5118057;28;20066;-34
2024/01/13 02:30:09;;;;;;;0.38;0.38;;;22.40;47.30;;;;;;5119296;28;20120;-36
2024/01/13 02:32:35;;;;;;;1.27;0.45;;;22.40;47.40;;;;;;5123949;28;20110;-34
2024/01/13 02:35:02;;;;;;;4.13;0.40;;;22.30;47.30;;;;;;5117131;28;20036;-34
2024/01/13 02:37:28;;;;;;;2.05;0.50;;;22.30;47.30;;;;;;5121083;27;20114;-36
2024/01/13 02:39:54;;;;;;;0.68;0.40;;;22.30;47.30;;;;;;5121744;28;20039;-33
2024/01/13 02:42:20;;;;;;;0.68;0.40;;;22.40;47.30;;;;;;5115542;28;20885;-32
2024/01/13 02:44:47;;;;;;;1.42;0.40;;;22.40;47.20;;;;;;5115492;28;20043;-35
2024/01/13 02:47:13;;;;;;;0.80;0.50;;;22.40;47.20;;;;;;5116349;28;20031;-31
2024/01/13 02:49:39;;;;;;;1.08;0.40;;;22.40;47.30;;;;;;5115863;28;20035;-31
2024/01/13 02:52:05;;;;;;;1.30;0.47;;;22.40;47.20;;;;;;5116273;28;20088;-30
2024/01/13 02:54:31;;;;;;;0.83;0.43;;;22.40;47.20;;;;;;5116298;28;20044;-34
2024/01/13 02:56:59;;;;;;;0.40;0.40;;;22.40;47.30;;;;;;5114562;28;20089;-31
2024/01/13 02:59:25;;;;;;;1.17;0.50;;;22.40;47.10;;;;;;5114386;28;20069;-32
2024/01/13 03:01:51;;;;;;;0.60;0.40;;;22.50;47.10;;;;;;5116345;28;20051;-31
2024/01/13 03:04:17;;;;;;;1.15;0.57;;;22.50;47.20;;;;;;5116199;28;20035;-30
2024/01/13 03:06:44;;;;;;;1.08;0.77;;;22.40;47.20;;;;;;5114814;28;20039;-31
2024/01/13 03:09:11;;;;;;;1.33;0.40;;;22.40;47.20;;;;;;5113621;28;20028;-31
2024/01/13 03:11:37;;;;;;;;;;;22.40;47.20;;;;;;5116931;28;20043;-35
2024/01/13 03:14:03;;;;;;;0.55;0.35;;;22.40;47.20;;;;;;5121049;28;19915;-32
2024/01/13 03:16:29;;;;;;;0.77;0.40;;;22.40;47.10;;;;;;5121372;27;20019;-31
2024/01/13 03:18:55;;;;;;;0.85;0.52;;;22.50;47.10;;;;;;5118974;27;20032;-33
2024/01/13 03:21:22;;;;;;;0.60;0.32;;;22.50;47.10;;;;;;5118851;28;20052;-30
2024/01/13 03:23:48;;;;;;;0.40;0.40;;;22.40;47.10;;;;;;5118558;28;20024;-35
2024/01/13 03:26:14;;;;;;;0.70;0.40;;;22.40;47.00;;;;;;5117928;28;20046;-32
2024/01/13 03:28:40;;;;;;;0.77;0.43;;;22.40;47.10;;;;;;5116088;27;20039;-34
2024/01/13 03:31:06;;;;;;;0.30;0.30;;;22.40;47.20;;;;;;5115321;28;20024;-33
2024/01/13 03:33:33;;;;;;;0.45;0.45;;;22.40;47.60;;;;;;5116074;28;20040;-33
2024/01/13 03:35:59;;;;;;;0.40;0.40;;;22.50;47.10;;;;;;5114575;28;20043;-34
2024/01/13 03:38:26;;;;;;;0.63;0.40;;;22.50;47.00;;;;;;5115390;27;20036;-30
2024/01/13 03:40:52;;;;;;;0.60;0.35;;;22.50;47.00;;;;;;5116653;27;20031;-31
2024/01/13 03:43:19;;;;;;;0.32;0.32;;;22.40;47.00;;;;;;5114791;28;20117;-33
2024/01/13 03:45:45;;;;;;;0.55;0.32;;;22.40;46.90;;;;;;5112249;28;20050;-32
2024/01/13 03:48:11;;;;;;;0.50;0.40;;;22.40;47.10;;;;;;5113126;28;20019;-35
2024/01/13 03:50:37;;;;;;;1.50;0.47;;;22.50;47.00;;;;;;5113303;28;20572;-33
2024/01/13 03:53:04;;;;;;;0.50;0.40;;;22.50;47.00;;;;;;5114114;28;20042;-31
2024/01/13 03:55:30;;;;;;;1.13;0.40;;;22.50;47.00;;;;;;5115690;28;20027;-31
2024/01/13 03:57:56;;;;;;;0.30;0.30;;;22.50;47.00;;;;;;5114169;27;20031;-30
2024/01/13 04:00:22;;;;;;;0.40;0.40;;;22.40;47.00;;;;;;5113236;28;20150;-31
2024/01/13 04:02:48;;;;;;;2.17;0.47;;;22.40;47.00;;;;;;5114001;28;20035;-34
2024/01/13 04:05:15;;;;;;;0.57;0.40;;;22.40;47.00;;;;;;5110822;28;20034;-36
2024/01/13 04:07:41;;;;;;;0.60;0.30;;;22.50;47.00;;;;;;5111239;27;20031;-33
2024/01/13 04:10:07;;;;;;;0.57;0.40;;;22.50;47.00;;;;;;5113486;27;20031;-32
2024/01/13 04:12:34;;;;;;;2.33;0.80;;;22.50;47.00;;;;;;5114874;28;20492;-30
2024/01/13 04:15:00;;;;;;;0.30;0.30;;;22.40;46.90;;;;;;5117061;28;20032;-31
2024/01/13 04:17:26;;;;;;;0.65;0.50;;;22.40;47.00;;;;;;5117775;28;20038;-31
2024/01/13 04:19:52;;;;;;;0.75;0.30;;;22.40;47.10;;;;;;5114415;28;20043;-31
2024/01/13 04:22:18;;;;;;;1.58;0.43;;;22.40;47.40;;;;;;5111482;28;20077;-32
2024/01/13 04:24:44;;;;;;;2.30;0.50;;;22.50;47.60;;;;;;5111533;28;20030;-31
2024/01/13 04:27:10;;;;;;;1.08;0.95;;;22.50;47.50;;;;;;5112752;28;20048;-34
2024/01/13 04:29:37;;;;;;;1.50;0.40;;;22.40;47.40;;;;;;5107508;27;20045;-32
2024/01/13 04:32:03;;;;;;;0.45;0.30;;;22.40;47.40;;;;;;5109565;28;20027;-31
2024/01/13 04:34:29;;;;;;;0.90;0.40;;;22.40;47.40;;;;;;5105990;28;20043;-30
2024/01/13 04:36:55;;;;;;;0.95;0.40;;;22.40;47.40;;;;;;5110616;28;20024;-30
2024/01/13 04:39:22;;;;;;;1.23;0.40;;;22.30;47.30;;;;;;5109522;28;20050;-30
2024/01/13 04:41:48;;;;;;;1.40;0.30;;;22.40;48.00;;;;;;5109641;27;20038;-35
2024/01/13 04:44:14;;;;;;;0.75;0.32;;;22.40;47.40;;;;;;5112182;28;20109;-32
2024/01/13 04:46:40;;;;;;;0.95;0.38;;;22.30;47.50;;;;;;5111514;28;20031;-35
2024/01/13 04:49:06;;;;;;;1.38;0.32;;;22.30;47.30;;;;;;5114161;28;20743;-31
2024/01/13 04:51:33;;;;;;;0.73;0.30;;;22.30;47.30;;;;;;5114604;27;20061;-31
2024/01/13 04:53:59;;;;;;;4.53;0.50;;;22.20;47.30;;;;;;5118852;28;20027;-35
2024/01/13 04:56:25;;;;;;;1.23;0.38;;;22.20;47.30;;;;;;5117073;28;20031;-34
2024/01/13 04:58:52;;;;;;;2.20;0.40;;;22.10;47.40;;;;;;5118147;28;20070;-33
2024/01/13 05:01:19;;;;;;;1.85;0.35;;;22.00;47.70;;;;;;5119935;27;20019;-36
2024/01/13 05:03:45;;;;;;;1.67;0.50;;;22.00;47.70;;;;;;5117457;28;20035;-34
2024/01/13 05:06:11;;;;;;;2.72;0.40;;;22.00;47.50;;;;;;5118223;28;20024;-31
2024/01/13 05:08:37;;;;;;;0.85;0.30;;;22.00;47.40;;;;;;5115608;28;20031;-31
2024/01/13 05:11:03;;;;;;;2.47;0.30;;;22.00;47.40;;;;;;5117816;28;20038;-31
2024/01/13 05:13:29;;;;;;;1.90;0.40;;;22.00;47.40;;;;;;5117194;28;20083;-33
2024/01/13 05:15:56;;;;;;;0.70;0.30;;;22.00;47.40;;;;;;5116149;28;20057;-32
2024/01/13 05:18:22;;;;;;;2.67;0.30;;;21.90;47.60;;;;;;5116078;28;20076;-30
2024/01/13 05:20:48;;;;;;;0.40;0.40;;;21.90;47.80;;;;;;5113873;28;20095;-36
2024/01/13 05:23:14;;;;;;;1.08;0.32;;;21.90;47.80;;;;;;5115935;28;20031;-30
2024/01/13 05:25:40;;;;;;;2.28;0.50;;;21.90;47.70;;;;;;5119846;28;20042;-31
2024/01/13 05:28:06;;;;;;;0.77;0.32;;;21.90;47.60;;;;;;5113783;28;20125;-33
2024/01/13 05:30:33;;;;;;;0.45;0.38;;;21.80;47.50;;;;;;5114660;27;20042;-33
2024/01/13 05:33:00;;;;;;;1.00;0.50;;;21.80;47.50;;;;;;5115379;28;20032;-31
2024/01/13 05:35:26;;;;;;;2.75;0.38;;;21.70;47.70;;;;;;5114949;28;20028;-35
2024/01/13 05:37:53;;;;;;;0.75;0.28;;;21.70;47.90;;;;;;5119084;27;20035;-33
2024/01/13 05:40:22;;;;;;;2.22;0.40;;;21.70;47.90;;;;;;5120184;28;20035;-35
2024/01/13 05:42:48;;;;;;;1.98;0.40;;;21.70;47.70;;;;;;5116092;28;20089;-32
2024/01/13 05:45:14;;;;;;;2.70;0.55;;;21.70;47.60;;;;;;5120243;28;20023;-35
2024/01/13 05:47:40;;;;;;;1.98;0.40;;;21.70;47.50;;;;;;5118836;28;20100;-36
2024/01/13 05:50:07;;;;;;;1.45;0.50;;;21.70;47.40;;;;;;5115441;28;20028;-34
2024/01/13 05:52:33;;;;;;;1.42;0.40;;;21.60;47.80;;;;;;5109550;28;20028;-30
2024/01/13 05:54:59;;;;;;;1.85;0.30;;;21.60;48.00;;;;;;5112178;28;20048;-33
2024/01/13 05:57:26;;;;;;;1.33;0.40;;;21.60;47.90;;;;;;5110387;28;20046;-32
2024/01/13 05:59:52;;;;;;;2.17;0.60;;;21.60;47.80;;;;;;5112766;28;20595;-34
2024/01/13 06:02:18;;;;;;;1.23;0.40;;;21.60;47.60;;;;;;5109440;28;20027;-33
2024/01/13 06:04:46;;;;;;;2.58;0.50;;;21.60;47.50;;;;;;5116899;28;20096;-36
2024/01/13 06:07:14;;;;;;;2.90;0.38;;;21.60;47.50;;;;;;5111037;28;20042;-31
2024/01/13 06:09:40;;;;;;;1.25;0.50;;;21.50;47.80;;;;;;5108481;28;20062;-33
2024/01/13 06:12:07;;;;;;;0.90;0.40;;;21.50;48.10;;;;;;5114393;28;20110;-33
2024/01/13 06:14:33;;;;;;;1.27;0.30;;;21.50;48.00;;;;;;5108907;28;21288;-34
2024/01/13 06:17:00;;;;;;;1.63;0.70;;;21.50;47.80;;;;;;5108020;28;20118;-34
2024/01/13 06:19:26;;;;;;;0.50;0.30;;;21.50;47.60;;;;;;5108450;28;20047;-31
2024/01/13 06:21:52;;;;;;;2.85;0.45;;;21.50;47.80;;;;;;5110848;28;20031;-32
2024/01/13 06:24:18;;;;;;;2.22;0.40;;;21.40;47.80;;;;;;5110777;28;20038;-31
2024/01/13 06:26:44;;;;;;;1.60;0.40;;;21.40;47.70;;;;;;5109701;28;20059;-35
2024/01/13 06:29:11;;;;;;;1.27;0.40;;;21.50;47.70;;;;;;5110003;28;20116;-33
2024/01/13 06:31:37;;;;;;;2.83;0.40;;;21.50;47.70;;;;;;5111002;28;20061;-34
2024/01/13 06:34:03;;;;;;;2.67;0.60;;;21.50;47.70;;;;;;5107333;28;20031;-35
2024/01/13 06:36:29;;;;;;;0.98;0.30;;;21.40;47.70;;;;;;5109533;28;20031;-30
2024/01/13 06:38:56;;;;;;;1.05;0.30;;;21.40;47.80;;;;;;5108003;28;20034;-33
2024/01/13 06:41:22;;;;;;;1.10;0.40;;;21.40;47.80;;;;;;5095046;28;20061;-35
2024/01/13 06:43:48;;;;;;;1.70;0.30;;;21.40;47.60;;;;;;5114778;28;20023;-35
2024/01/13 06:46:14;;;;;;;1.65;0.40;;;21.40;47.60;;;;;;5113247;28;20027;-37
2024/01/13 06:48:40;;;;;;;1.25;0.52;;;21.40;47.60;;;;;;5116843;28;20028;-30
2024/01/13 06:51:06;;;;;;;0.77;0.40;;;21.40;47.60;;;;;;5121992;28;20039;-33
2024/01/13 06:53:33;;;;;;;1.63;0.40;;;21.30;47.60;;;;;;5119410;28;20562;-32
2024/01/13 06:55:59;;;;;;;0.95;0.35;;;21.30;47.70;;;;;;5116936;27;20035;-33
2024/01/13 06:58:25;;;;;;;1.10;0.32;;;21.30;47.60;;;;;;5120223;28;20091;-32
2024/01/13 07:00:51;;;;;;;0.70;0.43;;;21.30;47.50;;;;;;5118781;27;20032;-34
2024/01/13 07:03:17;;;;;;;0.75;0.32;;;21.30;47.40;;;;;;5114230;28;20034;-34
2024/01/13 07:05:43;;;;;;;1.42;0.60;;;21.30;47.40;;;;;;5110094;28;20107;-35
2024/01/13 07:08:09;;;;;;;1.23;0.30;;;21.30;47.50;;;;;;5116402;28;20079;-30
2024/01/13 07:10:35;;;;;;;1.42;0.50;;;21.20;47.40;;;;;;5113428;28;20039;-33
2024/01/13 07:13:02;;;;;;;0.93;0.40;;;21.20;47.80;;;;;;5114300;28;20564;-33
2024/01/13 07:15:28;;;;;;;0.98;0.40;;;21.20;47.40;;;;;;5112823;27;20023;-33
2024/01/13 07:17:54;;;;;;;1.42;0.40;;;21.20;47.30;;;;;;5108517;27;20084;-31
2024/01/13 07:20:20;;;;;;;0.90;0.50;;;21.20;47.30;;;;;;5112112;28;20047;-35
2024/01/13 07:22:46;;;;;;;1.02;0.40;;;21.20;47.40;;;;;;5112529;28;20038;-33
2024/01/13 07:25:12;;;;;;;1.30;0.50;;;21.10;47.40;;;;;;5111689;27;20034;-32
2024/01/13 07:27:39;;;;;;;0.40;0.32;;;21.10;47.40;;;;;;5112176;28;20071;-35
2024/01/13 07:30:06;;;;;;;0.77;0.50;;;21.10;47.40;;;;;;5114447;28;20433;-31
2024/01/13 07:32:32;;;;;;;0.68;0.40;;;21.20;47.30;;;;;;5108336;28;20027;-30
2024/01/13 07:34:58;;;;;;;0.90;0.50;;;21.20;47.20;;;;;;5110638;27;20076;-32
2024/01/13 07:37:24;;;;;;;0.43;0.30;;;21.20;47.80;;;;;;5109381;28;20031;-31
2024/01/13 07:39:50;;;;;;;0.60;0.40;;;21.10;47.30;;;;;;5112677;28;20046;-32
2024/01/13 07:42:17;;;;;;;1.25;0.63;;;21.10;47.40;;;;;;5116445;27;20031;-31
2024/01/13 07:44:44;;;;;;;0.70;0.40;;;21.00;47.40;;;;;;5119780;27;20036;-35
2024/01/13 07:47:10;;;;;;;0.95;0.60;;;21.00;47.20;;;;;;5120392;27;20040;-32
2024/01/13 07:49:36;;;;;;;1.10;0.60;;;21.10;47.10;;;;;;5117396;27;20807;-34
2024/01/13 07:52:02;;;;;;;0.75;0.60;;;21.10;47.10;;;;;;5117367;27;20059;-35
2024/01/13 07:54:29;;;;;;;1.10;0.70;;;21.00;47.10;;;;;;5117700;27;20028;-34
2024/01/13 07:56:55;;;;;;;0.70;0.50;;;21.00;47.20;;;;;;5117261;28;20016;-33
2024/01/13 07:59:22;;;;;;;0.88;0.75;;;20.90;47.20;;;;;;5119829;28;20480;-35
2024/01/13 08:01:48;;;;;;;1.88;0.80;;;20.90;47.20;;;;;;5117431;27;20039;-32
2024/01/13 08:04:15;;;;;;;2.42;0.95;;;21.00;47.10;;;;;;5119620;28;20028;-31
2024/01/13 08:06:41;;;;;;;2.45;0.70;;;21.00;47.00;;;;;;5115027;28;20127;-32
2024/01/13 08:09:07;;;;;;;1.02;0.90;;;21.00;47.00;;;;;;5116494;28;20023;-35
2024/01/13 08:11:33;;;;;;;0.80;0.60;;;20.90;47.00;;;;;;5116234;27;20042;-31
2024/01/13 08:14:00;;;;;;;1.02;0.82;;;20.90;47.10;;;;;;5111547;27;20020;-32
2024/01/13 08:16:29;;;;;;;1.25;1.02;;;20.80;47.10;;;;;;5118046;28;20480;-34
2024/01/13 08:18:55;;;;;;;0.85;0.80;;;20.90;46.90;;;;;;5118082;27;20043;-31
2024/01/13 08:21:21;;;;;;;1.25;0.90;;;20.90;46.80;;;;;;5117888;28;20498;-33
2024/01/13 08:23:48;;;;;;;1.13;0.85;;;20.90;46.80;;;;;;5115751;28;20036;-31
2024/01/13 08:26:14;;;;;;;0.77;0.65;;;20.90;46.90;;;;;;5119677;28;20028;-32
2024/01/13 08:28:40;;;;;;;0.98;0.82;;;20.80;46.90;;;;;;5115799;27;20095;-34
2024/01/13 08:31:07;;;;;;;0.65;0.57;;;20.80;47.00;;;;;;5117320;28;20063;-35
2024/01/13 08:33:33;;;;;;;1.13;0.75;;;20.80;46.90;;;;;;5119716;28;20031;-35
2024/01/13 08:35:59;;;;;;;1.30;0.90;;;20.90;46.70;;;;;;5118513;28;20219;-32
2024/01/13 08:38:25;;;;;;;2.60;0.90;;;20.90;46.70;;;;;;5119482;28;20031;-35
2024/01/13 08:40:51;;;;;;;2.15;0.93;;;20.80;46.70;;;;;;5114695;28;20369;-32
2024/01/13 08:43:17;;;;;;;1.67;0.82;;;20.80;46.80;;;;;;5113852;28;20051;-34
2024/01/13 08:45:43;;;;;;;1.55;0.95;;;20.70;46.80;;;;;;5111714;28;20027;-35
2024/01/13 08:48:09;;;;;;;0.93;0.82;;;20.70;46.70;;;;;;5112849;28;20035;-31
2024/01/13 08:50:35;;;;;;;1.00;0.90;;;20.80;46.60;;;;;;5111762;28;20095;-33
2024/01/13 08:53:02;;;;;;;1.00;0.90;;;20.80;46.40;;;;;;5111151;28;20046;-34
2024/01/13 08:55:28;;;;;;;1.20;0.70;;;20.80;46.50;;;;;;5110045;28;20430;-36
2024/01/13 08:57:54;;;;;;;1.10;0.77;;;20.70;46.50;;;;;;5108397;28;20032;-34
2024/01/13 09:00:22;;;;;;;1.13;0.90;;;20.70;46.60;;;;;;5105800;28;20070;-32
2024/01/13 09:02:48;;;;;;;1.08;0.98;;;20.70;46.60;;;;;;5110249;28;20035;-34
2024/01/13 09:05:14;;;;;;;1.10;0.90;;;20.70;46.40;;;;;;5113019;28;20023;-36
2024/01/13 09:07:40;;;;;;;1.63;0.90;;;20.70;46.30;;;;;;5110027;28;20850;-35
2024/01/13 09:10:07;;;;;;;1.08;0.90;;;20.70;46.30;;;;;;5111829;28;20057;-37
2024/01/13 09:12:33;;;;;;;1.02;0.88;;;20.70;46.30;;;;;;5115164;27;20032;-34
2024/01/13 09:14:59;;;;;;;1.02;0.80;;;20.60;46.40;;;;;;5121100;28;20036;-32
2024/01/13 09:17:25;;;;;;;2.35;1.00;;;20.60;46.50;;;;;;5117352;28;20078;-31
2024/01/13 09:19:52;;;;;;;1.17;0.93;;;20.60;46.40;;;;;;5118718;27;20039;-30
2024/01/13 09:22:18;;;;;;;1.25;0.82;;;20.60;46.10;;;;;;5114095;28;20089;-32
2024/01/13 09:24:45;;;;;;;0.98;0.80;;;20.70;46.10;;;;;;5114337;27;20032;-34
2024/01/13 09:27:11;;;;;;;1.30;0.88;;;20.60;46.10;;;;;;5119384;27;20049;-36
2024/01/13 09:29:38;;;;;;;1.42;0.90;;;20.60;46.10;;;;;;5115705;28;20035;-30
2024/01/13 09:32:05;;;;;;;;;;;20.60;46.30;;;;;;5116966;27;20035;-32
2024/01/13 09:34:31;;;;;;;1.13;0.80;;;20.50;46.20;;;;;;5116981;28;19978;-35
2024/01/13 09:36:58;;;;;;;1.40;1.00;;;20.60;46.00;;;;;;5115358;28;20354;-33
2024/01/13 09:39:24;;;;;;;0.80;0.70;;;20.60;46.00;;;;;;5117474;28;20039;-36
2024/01/13 09:41:51;;;;;;;0.77;0.68;;;20.60;46.00;;;;;;5117578;28;20276;-32
2024/01/13 09:44:21;;;;;;;0.70;0.55;;;20.50;46.10;;;;;;5115999;28;20435;-37
2024/01/13 09:46:49;;;;;;;0.93;0.80;;;20.40;46.20;;;;;;5118125;28;20038;-33
2024/01/13 09:49:17;;;;;;;1.02;0.70;;;20.50;46.10;;;;;;5115882;28;20023;-34
2024/01/13 09:51:44;;;;;;;1.13;0.70;;;20.50;45.90;;;;;;5115873;28;20036;-33
2024/01/13 09:54:14;;;;;;;0.70;0.60;;;20.50;45.80;;;;;;5116643;28;20042;-35
2024/01/13 09:56:45;;;;;;;1.02;0.77;;;20.50;45.90;;;;;;5116232;28;20047;-34
2024/01/13 09:59:12;;;;;;;1.15;0.88;;;20.40;46.00;;;;;;5115611;28;20160;-35
2024/01/13 10:01:39;;;;;;;1.43;0.60;;;20.40;46.10;;;;;;5112681;28;20039;-34
2024/01/13 10:04:05;;;;;;;0.65;0.65;;;20.40;45.90;;;;;;5112667;28;20392;-35
2024/01/13 10:06:35;;;;;;;0.88;0.80;;;20.40;45.80;;;;;;5116688;28;20484;-35
2024/01/13 10:09:01;;;;;;;1.27;0.70;;;20.40;45.70;;;;;;5116955;28;20032;-32
2024/01/13 10:11:30;;;;;;;1.20;0.75;;;20.40;45.80;;;;;;5115691;28;20139;-36
2024/01/13 10:14:08;;;;;;;0.95;0.70;;;20.30;45.90;;;;;;5109022;28;20024;-32
2024/01/13 10:16:34;;;;;;;0.52;0.52;;;20.30;46.00;;;;;;5106315;28;20061;-32
2024/01/13 10:19:07;;;;;;;1.00;0.90;;;20.30;45.80;;;;;;5108434;28;20059;-33
2024/01/13 10:21:34;;;;;;;1.00;0.82;;;20.30;45.60;;;;;;5112279;28;20046;-34
2024/01/13 10:24:01;;;;;;;1.17;0.80;;;20.40;45.60;;;;;;5109766;28;20024;-33
2024/01/13 10:26:28;;;;;;;0.70;0.65;;;20.30;45.70;;;;;;5113936;27;20055;-35
2024/01/13 10:28:56;;;;;;;0.70;0.70;;;20.30;45.90;;;;;;5112587;28;20058;-35
2024/01/13 10:31:23;;;;;;;0.77;0.77;;;20.20;46.00;;;;;;5111671;27;20036;-32
2024/01/13 10:33:50;;;;;;;2.28;0.80;;;20.30;45.80;;;;;;5114022;28;20036;-30
2024/01/13 10:36:18;;;;;;;1.98;0.70;;;20.30;45.70;;;;;;5113787;28;20129;-30
2024/01/13 10:38:44;;;;;;;0.88;0.70;;;20.30;45.70;;;;;;5111254;28;20020;-33
2024/01/13 10:41:11;;;;;;;0.80;0.80;;;20.30;45.80;;;;;;5113417;28;20042;-32
2024/01/13 10:43:39;;;;;;;2.25;0.70;;;20.20;45.80;;;;;;5119563;28;20095;-36
2024/01/13 10:46:13;;;;;;;1.45;0.70;;;20.20;45.80;;;;;;5117059;27;20034;-35
2024/01/13 10:48:47;;;;;;;1.73;0.77;;;20.30;45.70;;;;;;5120604;27;20024;-33
2024/01/13 10:51:19;;;;;;;1.70;0.70;;;20.30;45.60;;;;;;5118318;28;20869;-32
2024/01/13 10:53:45;;;;;;;0.98;0.57;;;20.30;45.60;;;;;;5120576;28;20032;-36
2024/01/13 10:56:12;;;;;;;0.80;0.70;;;20.20;45.60;;;;;;5153380;27;20032;-31
2024/01/13 10:58:38;;;;;;;2.45;0.70;;;20.10;45.80;;;;;;5117318;27;20027;-32
2024/01/13 11:01:04;;;;;;;0.52;0.50;;;20.20;45.70;;;;;;5118558;28;20051;-35
2024/01/13 11:03:31;;;;;;;1.27;0.80;;;20.20;45.50;;;;;;5119625;28;20024;-36
2024/01/13 11:05:58;;;;;;;1.75;0.88;;;20.20;45.40;;;;;;5116940;28;20027;-33
2024/01/13 11:08:24;;;;;;;0.70;0.60;;;20.20;45.50;;;;;;5116475;27;20524;-36
2024/01/13 11:10:50;;;;;;;2.50;0.70;;;20.10;45.60;;;;;;5117133;27;20035;-33
2024/01/13 11:13:24;;;;;;;1.08;0.60;;;20.10;45.70;;;;;;5116921;28;20032;-36
2024/01/13 11:16:26;;;;;;;0.90;0.70;;;20.10;45.60;;;;;;5115850;28;20814;-32
2024/01/13 11:18:53;;;;;;;1.23;0.68;;;20.10;45.40;;;;;;5079791;28;20024;-32
2024/01/13 11:21:22;;;;;;;;;;;20.20;45.40;;;;;;5091294;28;20041;-32
2024/01/13 11:23:53;;;;;;;2.17;0.70;;;20.10;45.40;;;;;;5070995;28;20162;-37
2024/01/13 11:26:32;;;;;;;1.10;0.90;;;20.10;45.60;;;;;;5078216;28;20036;-36
2024/01/13 11:28:58;;;;;;;0.70;0.60;;;20.00;45.60;;;;;;5078339;28;20033;-31
2024/01/13 11:31:40;;;;;;;0.80;0.63;;;20.00;45.40;;;;;;5076447;28;20032;-34
2024/01/13 11:34:27;;;;;;;1.38;0.73;;;20.10;45.40;;;;;;5075535;28;20833;-37
2024/01/13 11:36:56;;;;;;;3.63;0.90;;;20.10;45.40;;;;;;5034740;28;20060;-32
2024/01/13 11:39:22;;;;;;;0.73;0.68;;;20.00;45.40;;;;;;5034920;28;20052;-37
2024/01/13 11:41:58;;;;;;;0.80;0.70;;;20.00;45.40;;;;;;5038312;28;20037;-35
2024/01/13 11:44:37;;;;;;;1.85;0.60;;;20.00;45.40;;;;;;5034548;28;20109;-35
2024/01/13 11:47:09;;;;;;;0.88;0.60;;;20.00;45.20;;;;;;5035052;28;20037;-31
2024/01/13 11:49:40;;;;;;;0.90;0.60;;;20.10;45.10;;;;;;5022654;28;20037;-33
2024/01/13 11:52:07;;;;;;;1.17;0.70;;;20.10;45.10;;;;;;5045283;28;20036;-36
2024/01/13 11:54:37;;;;;;;0.98;0.60;;;20.00;45.20;;;;;;5066476;28;20045;-37
2024/01/13 11:57:10;;;;;;;0.80;0.55;;;20.00;45.20;;;;;;5059800;28;20759;-32
2024/01/13 11:59:36;;;;;;;1.02;0.60;;;20.00;45.10;;;;;;5066123;28;20044;-34
2024/01/13 12:02:03;;;;;;;0.90;0.60;;;20.00;45.00;;;;;;5066405;28;20107;-32
2024/01/13 12:04:29;;;;;;;1.70;0.70;;;20.10;45.00;;;;;;5068198;28;20606;-36
2024/01/13 12:06:56;;;;;;;0.77;0.50;;;20.00;45.00;;;;;;5068153;28;21547;-32
2024/01/13 12:09:23;;;;;;;1.42;0.55;;;20.00;45.10;;;;;;5067735;28;20060;-36
2024/01/13 12:11:59;;;;;;;1.08;0.60;;;19.90;45.20;;;;;;5069054;28;20719;-36
2024/01/13 12:14:29;;;;;;;1.20;0.70;;;20.00;45.10;;;;;;5097993;28;20028;-35
2024/01/13 12:16:56;;;;;;;0.70;0.60;;;20.00;45.00;;;;;;5113290;28;20062;-35
2024/01/13 12:19:24;;;;;;;2.22;0.80;;;20.00;44.90;;;;;;5116163;28;20061;-35
2024/01/13 12:21:50;;;;;;;0.60;0.50;;;20.00;45.00;;;;;;5114040;28;20043;-32
2024/01/13 12:24:16;;;;;;;0.50;0.50;;;19.90;45.10;;;;;;5112215;27;20027;-35
2024/01/13 12:26:43;;;;;;;0.98;0.63;;;19.90;45.10;;;;;;5109880;27;20078;-35
2024/01/13 12:29:09;;;;;;;0.60;0.45;;;19.90;45.00;;;;;;5107434;28;20489;-34
2024/01/13 12:31:35;;;;;;;0.63;0.50;;;19.90;44.80;;;;;;5108676;28;20028;-33
2024/01/13 12:34:11;;;;;;;0.93;0.70;;;20.00;44.80;;;;;;5107579;28;20123;-37
2024/01/13 12:36:38;;;;;;;0.60;0.45;;;19.90;45.00;;;;;;5110945;28;20027;-36
2024/01/13 12:39:08;;;;;;;0.68;0.50;;;19.80;45.00;;;;;;5108040;28;20118;-32
2024/01/13 12:41:34;;;;;;;0.70;0.60;;;19.80;45.00;;;;;;5103533;28;20067;-35
2024/01/13 12:44:01;;;;;;;0.77;0.77;;;19.90;44.90;;;;;;5107938;27;20058;-31
2024/01/13 12:46:28;;;;;;;0.50;0.50;;;19.90;44.80;;;;;;5109438;28;20476;-34